Parma — V2OZ9 — position and weather

sailwx.info

Track history (hours):
 
Tides and Currents Weather Stations Pressure Air Temp Water Temp Dewpoint Dewpoint Depression Visibility Wind Speed Wind Dir Waves Ship Positions

Parma

Last reported at 2016-Dec-08 09:12 UTC. Time now 2016-Dec-10 10:59 UTC.
Position N 39°25' W 009°43'.

MMSI: 279073176.

Date/timePositionNaut miles runAvg speedWind from/ knotsBaromVisibWave heightAir tempDewpointWater temp
2016-Dec-08 09:12N 39°25' W 009°43'711.1
2016-Dec-08 08:33N 39°17' W 009°43'1110.8
2016-Dec-08 07:33N 39°07' W 009°43'1110.7
2016-Dec-08 06:33N 38°56' W 009°43'1110.9
2016-Dec-08 05:33N 38°45' W 009°42'9 8.6
2016-Dec-08 04:34N 38°39' W 009°35'1010.1
2016-Dec-08 03:34N 38°38' W 009°22'1110.3
2016-Dec-08 02:32N 38°41' W 009°09'4 1.3
2016-Dec-07 23:31N 38°40' W 009°04'0 0.0
2016-Dec-07 19:07N 38°40' W 009°04'0 0.0
2016-Dec-07 15:07N 38°40' W 009°04'0 0.0
2016-Dec-07 11:31N 38°40' W 009°04'0 0.0
2016-Dec-07 03:19N 38°40' W 009°04'0 0.0
2016-Dec-07 00:22N 38°40' W 009°04'0 0.0
2016-Dec-06 14:16N 38°40' W 009°04'0 0.0
2016-Dec-06 12:14N 38°40' W 009°04'0 0.0
2016-Dec-06 00:29N 38°40' W 009°04'0 0.0
2016-Dec-05 10:21N 38°40' W 009°04'0 0.0
2016-Dec-05 08:03N 38°40' W 009°04'0 0.0
2016-Dec-05 06:30N 38°40' W 009°04'0 0.0
2016-Dec-05 01:06N 38°40' W 009°04'0 0.0
2016-Dec-05 00:30N 38°40' W 009°04'0 0.0
2016-Dec-04 23:25N 38°40' W 009°04'0 0.0
2016-Dec-04 20:22N 38°40' W 009°04'0 0.0
2016-Dec-04 19:10N 38°40' W 009°04'0 0.0
2016-Dec-04 18:22N 38°40' W 009°04'0 0.0
2016-Dec-04 17:19N 38°40' W 009°04'0 0.0
2016-Dec-04 14:25N 38°40' W 009°04'0 0.0
2016-Dec-04 13:21N 38°40' W 009°04'0 0.0
2016-Dec-04 12:15N 38°40' W 009°04'0 0.0
2016-Dec-04 11:27N 38°40' W 009°04'0 0.0
2016-Dec-04 08:27N 38°40' W 009°04'0 0.0
2016-Dec-04 04:27N 38°40' W 009°04'0 0.0
2016-Dec-04 03:33N 38°40' W 009°04'0 0.0
2016-Dec-04 02:12N 38°40' W 009°04'0 0.0
2016-Dec-04 01:33N 38°40' W 009°04'0 0.0
2016-Dec-03 23:24N 38°40' W 009°04'0 0.0
2016-Dec-03 22:24N 38°40' W 009°04'0 0.0
2016-Dec-03 21:24N 38°40' W 009°04'0 0.0
2016-Dec-03 20:24N 38°40' W 009°04'0 0.0
2016-Dec-03 17:12N 38°40' W 009°04'0 0.0
2016-Dec-03 16:30N 38°40' W 009°04'0 0.0
2016-Dec-03 14:24N 38°40' W 009°04'0 0.0
2016-Dec-03 13:22N 38°40' W 009°04'3 3.2
2016-Dec-03 12:33N 38°41' W 009°08'8 7.7
2016-Dec-03 11:33N 38°41' W 009°17'6 5.7
2016-Dec-03 10:33N 38°39' W 009°24'1 0.5
2016-Dec-03 09:28N 38°40' W 009°24'0 0.0
2016-Dec-03 08:28N 38°40' W 009°24'0 0.0
2016-Dec-03 07:28N 38°40' W 009°24'0 0.0
2016-Dec-03 05:16N 38°40' W 009°24'0 0.0
2016-Dec-03 04:22N 38°40' W 009°24'0 0.0
2016-Dec-03 02:16N 38°40' W 009°24'0 0.0
2016-Dec-03 01:31N 38°40' W 009°24'0 0.1
2016-Dec-03 00:33N 38°40' W 009°24'7 6.9
2016-Dec-02 23:33N 38°38' W 009°33'10 9.6
2016-Dec-02 22:33N 38°36' W 009°45'10 9.7
2016-Dec-02 21:33N 38°35' W 009°57'8 7.6
2016-Dec-02 20:33N 38°40' W 010°05'9 9.3
2016-Dec-02 19:33N 38°49' W 010°06'  
Track history (hours):
 
Tides and Currents Weather Stations Pressure Air Temp Water Temp Dewpoint Dewpoint Depression Visibility Wind Speed Wind Dir Waves Ship Positions

Parma

Last reported at 2016-Dec-08 09:12 UTC. Time now 2016-Dec-10 10:59 UTC.
Position N 39°25' W 009°43'.

MMSI: 279073176.

Date/timePositionNaut miles runAvg speedWind from/ knotsBaromVisibWave heightAir tempDewpointWater temp
2016-Dec-08 09:12N 39°25' W 009°43'711.1
2016-Dec-08 08:33N 39°17' W 009°43'1110.8
2016-Dec-08 07:33N 39°07' W 009°43'1110.7
2016-Dec-08 06:33N 38°56' W 009°43'1110.9
2016-Dec-08 05:33N 38°45' W 009°42'9 8.6
2016-Dec-08 04:34N 38°39' W 009°35'1010.1
2016-Dec-08 03:34N 38°38' W 009°22'1110.3
2016-Dec-08 02:32N 38°41' W 009°09'4 1.3
2016-Dec-07 23:31N 38°40' W 009°04'0 0.0
2016-Dec-07 19:07N 38°40' W 009°04'0 0.0
2016-Dec-07 15:07N 38°40' W 009°04'0 0.0
2016-Dec-07 11:31N 38°40' W 009°04'0 0.0
2016-Dec-07 03:19N 38°40' W 009°04'0 0.0
2016-Dec-07 00:22N 38°40' W 009°04'0 0.0
2016-Dec-06 14:16N 38°40' W 009°04'0 0.0
2016-Dec-06 12:14N 38°40' W 009°04'0 0.0
2016-Dec-06 00:29N 38°40' W 009°04'0 0.0
2016-Dec-05 10:21N 38°40' W 009°04'0 0.0
2016-Dec-05 08:03N 38°40' W 009°04'0 0.0
2016-Dec-05 06:30N 38°40' W 009°04'0 0.0
2016-Dec-05 01:06N 38°40' W 009°04'0 0.0
2016-Dec-05 00:30N 38°40' W 009°04'0 0.0
2016-Dec-04 23:25N 38°40' W 009°04'0 0.0
2016-Dec-04 20:22N 38°40' W 009°04'0 0.0
2016-Dec-04 19:10N 38°40' W 009°04'0 0.0
2016-Dec-04 18:22N 38°40' W 009°04'0 0.0
2016-Dec-04 17:19N 38°40' W 009°04'0 0.0
2016-Dec-04 14:25N 38°40' W 009°04'0 0.0
2016-Dec-04 13:21N 38°40' W 009°04'0 0.0
2016-Dec-04 12:15N 38°40' W 009°04'0 0.0
2016-Dec-04 11:27N 38°40' W 009°04'0 0.0
2016-Dec-04 08:27N 38°40' W 009°04'0 0.0
2016-Dec-04 04:27N 38°40' W 009°04'0 0.0
2016-Dec-04 03:33N 38°40' W 009°04'0 0.0
2016-Dec-04 02:12N 38°40' W 009°04'0 0.0
2016-Dec-04 01:33N 38°40' W 009°04'0 0.0
2016-Dec-03 23:24N 38°40' W 009°04'0 0.0
2016-Dec-03 22:24N 38°40' W 009°04'0 0.0
2016-Dec-03 21:24N 38°40' W 009°04'0 0.0
2016-Dec-03 20:24N 38°40' W 009°04'0 0.0
2016-Dec-03 17:12N 38°40' W 009°04'0 0.0
2016-Dec-03 16:30N 38°40' W 009°04'0 0.0
2016-Dec-03 14:24N 38°40' W 009°04'0 0.0
2016-Dec-03 13:22N 38°40' W 009°04'3 3.2
2016-Dec-03 12:33N 38°41' W 009°08'8 7.7
2016-Dec-03 11:33N 38°41' W 009°17'6 5.7
2016-Dec-03 10:33N 38°39' W 009°24'1 0.5
2016-Dec-03 09:28N 38°40' W 009°24'0 0.0
2016-Dec-03 08:28N 38°40' W 009°24'0 0.0
2016-Dec-03 07:28N 38°40' W 009°24'0 0.0
2016-Dec-03 05:16N 38°40' W 009°24'0 0.0
2016-Dec-03 04:22N 38°40' W 009°24'0 0.0
2016-Dec-03 02:16N 38°40' W 009°24'0 0.0
2016-Dec-03 01:31N 38°40' W 009°24'0 0.1
2016-Dec-03 00:33N 38°40' W 009°24'7 6.9
2016-Dec-02 23:33N 38°38' W 009°33'10 9.6
2016-Dec-02 22:33N 38°36' W 009°45'10 9.7
2016-Dec-02 21:33N 38°35' W 009°57'8 7.6
2016-Dec-02 20:33N 38°40' W 010°05'9 9.3
2016-Dec-02 19:33N 38°49' W 010°06'  

Dump ship's entire track history